sensor_id;sensor_type;location;lat;lon;timestamp;P1;durP1;ratioP1;P2;durP2;ratioP2
16892;SDS011;8563;52.242;9.098;2024-01-06T00:00:53;3.60;;;1.93;;
16892;SDS011;8563;52.242;9.098;2024-01-06T00:03:25;3.70;;;2.00;;
16892;SDS011;8563;52.242;9.098;2024-01-06T00:05:57;3.53;;;2.17;;
16892;SDS011;8563;52.242;9.098;2024-01-06T00:08:30;2.77;;;2.00;;
16892;SDS011;8563;52.242;9.098;2024-01-06T00:11:04;3.17;;;2.33;;
16892;SDS011;8563;52.242;9.098;2024-01-06T00:13:37;3.00;;;2.67;;
16892;SDS011;8563;52.242;9.098;2024-01-06T00:16:09;3.57;;;2.50;;
16892;SDS011;8563;52.242;9.098;2024-01-06T00:18:41;5.03;;;2.50;;
16892;SDS011;8563;52.242;9.098;2024-01-06T00:21:14;2.90;;;2.70;;
16892;SDS011;8563;52.242;9.098;2024-01-06T00:23:46;3.70;;;3.20;;
16892;SDS011;8563;52.242;9.098;2024-01-06T00:26:20;3.60;;;3.13;;
16892;SDS011;8563;52.242;9.098;2024-01-06T00:28:53;3.63;;;3.33;;
16892;SDS011;8563;52.242;9.098;2024-01-06T00:31:26;4.43;;;4.03;;
16892;SDS011;8563;52.242;9.098;2024-01-06T00:33:58;4.50;;;4.10;;
16892;SDS011;8563;52.242;9.098;2024-01-06T00:36:31;4.43;;;4.03;;
16892;SDS011;8563;52.242;9.098;2024-01-06T00:39:03;4.33;;;3.50;;
16892;SDS011;8563;52.242;9.098;2024-01-06T00:41:37;4.77;;;4.00;;
16892;SDS011;8563;52.242;9.098;2024-01-06T00:44:10;4.83;;;3.90;;
16892;SDS011;8563;52.242;9.098;2024-01-06T00:46:42;3.87;;;3.47;;
16892;SDS011;8563;52.242;9.098;2024-01-06T00:49:14;4.63;;;4.10;;
16892;SDS011;8563;52.242;9.098;2024-01-06T00:51:47;5.07;;;3.73;;
16892;SDS011;8563;52.242;9.098;2024-01-06T00:54:19;4.93;;;3.93;;
16892;SDS011;8563;52.242;9.098;2024-01-06T00:56:53;7.70;;;4.53;;
16892;SDS011;8563;52.242;9.098;2024-01-06T00:59:25;5.07;;;4.67;;
16892;SDS011;8563;52.242;9.098;2024-01-06T01:01:58;4.93;;;4.43;;
16892;SDS011;8563;52.242;9.098;2024-01-06T01:04:30;5.27;;;4.80;;
16892;SDS011;8563;52.242;9.098;2024-01-06T01:07:03;5.67;;;5.17;;
16892;SDS011;8563;52.242;9.098;2024-01-06T01:09:35;5.43;;;4.93;;
16892;SDS011;8563;52.242;9.098;2024-01-06T01:12:09;5.23;;;4.73;;
16892;SDS011;8563;52.242;9.098;2024-01-06T01:14:42;4.97;;;4.47;;
16892;SDS011;8563;52.242;9.098;2024-01-06T01:17:14;7.30;;;5.40;;
16892;SDS011;8563;52.242;9.098;2024-01-06T01:19:46;6.17;;;5.40;;
16892;SDS011;8563;52.242;9.098;2024-01-06T01:22:19;5.33;;;4.83;;
16892;SDS011;8563;52.242;9.098;2024-01-06T01:24:51;5.80;;;5.27;;
16892;SDS011;8563;52.242;9.098;2024-01-06T01:27:25;5.30;;;4.90;;
16892;SDS011;8563;52.242;9.098;2024-01-06T01:29:57;5.30;;;4.80;;
16892;SDS011;8563;52.242;9.098;2024-01-06T01:32:30;6.50;;;5.40;;
16892;SDS011;8563;52.242;9.098;2024-01-06T01:35:02;6.20;;;5.60;;
16892;SDS011;8563;52.242;9.098;2024-01-06T01:37:35;6.13;;;5.53;;
16892;SDS011;8563;52.242;9.098;2024-01-06T01:40:08;6.27;;;5.67;;
16892;SDS011;8563;52.242;9.098;2024-01-06T01:42:42;5.70;;;5.10;;
16892;SDS011;8563;52.242;9.098;2024-01-06T01:45:14;6.70;;;6.00;;
16892;SDS011;8563;52.242;9.098;2024-01-06T01:47:47;6.53;;;5.90;;
16892;SDS011;8563;52.242;9.098;2024-01-06T01:50:19;5.83;;;5.33;;
16892;SDS011;8563;52.242;9.098;2024-01-06T01:52:52;5.57;;;5.07;;
16892;SDS011;8563;52.242;9.098;2024-01-06T01:55:25;6.10;;;5.60;;
16892;SDS011;8563;52.242;9.098;2024-01-06T01:57:59;6.27;;;5.70;;
16892;SDS011;8563;52.242;9.098;2024-01-06T02:00:31;5.60;;;4.60;;
16892;SDS011;8563;52.242;9.098;2024-01-06T02:03:04;4.57;;;4.17;;
16892;SDS011;8563;52.242;9.098;2024-01-06T02:05:37;4.53;;;3.90;;
16892;SDS011;8563;52.242;9.098;2024-01-06T02:08:09;4.53;;;3.80;;
16892;SDS011;8563;52.242;9.098;2024-01-06T02:10:42;3.57;;;3.07;;
16892;SDS011;8563;52.242;9.098;2024-01-06T02:13:15;3.40;;;3.10;;
16892;SDS011;8563;52.242;9.098;2024-01-06T02:15:49;3.50;;;3.20;;
16892;SDS011;8563;52.242;9.098;2024-01-06T02:18:23;3.30;;;3.00;;
16892;SDS011;8563;52.242;9.098;2024-01-06T02:20:56;3.97;;;3.03;;
16892;SDS011;8563;52.242;9.098;2024-01-06T02:23:31;3.97;;;3.57;;
16892;SDS011;8563;52.242;9.098;2024-01-06T02:26:03;3.27;;;3.00;;
16892;SDS011;8563;52.242;9.098;2024-01-06T02:28:36;4.00;;;3.50;;
16892;SDS011;8563;52.242;9.098;2024-01-06T02:31:08;4.93;;;3.90;;
16892;SDS011;8563;52.242;9.098;2024-01-06T02:33:40;4.90;;;4.47;;
16892;SDS011;8563;52.242;9.098;2024-01-06T02:36:13;4.70;;;4.30;;
16892;SDS011;8563;52.242;9.098;2024-01-06T02:38:47;4.37;;;3.97;;
16892;SDS011;8563;52.242;9.098;2024-01-06T02:41:19;4.30;;;3.90;;
16892;SDS011;8563;52.242;9.098;2024-01-06T02:43:53;4.50;;;4.10;;
16892;SDS011;8563;52.242;9.098;2024-01-06T02:46:26;3.90;;;3.60;;
16892;SDS011;8563;52.242;9.098;2024-01-06T02:48:59;4.30;;;3.90;;
16892;SDS011;8563;52.242;9.098;2024-01-06T02:51:31;4.70;;;4.30;;
16892;SDS011;8563;52.242;9.098;2024-01-06T02:54:05;5.03;;;4.10;;
16892;SDS011;8563;52.242;9.098;2024-01-06T02:56:38;4.90;;;4.30;;
16892;SDS011;8563;52.242;9.098;2024-01-06T02:59:10;4.97;;;4.53;;
16892;SDS011;8563;52.242;9.098;2024-01-06T03:01:42;4.47;;;4.07;;
16892;SDS011;8563;52.242;9.098;2024-01-06T03:04:15;5.20;;;4.30;;
16892;SDS011;8563;52.242;9.098;2024-01-06T03:06:47;4.57;;;3.93;;
16892;SDS011;8563;52.242;9.098;2024-01-06T03:09:25;5.70;;;5.03;;
16892;SDS011;8563;52.242;9.098;2024-01-06T03:11:57;5.77;;;5.27;;
16892;SDS011;8563;52.242;9.098;2024-01-06T03:14:29;3.93;;;3.63;;
16892;SDS011;8563;52.242;9.098;2024-01-06T03:17:02;5.20;;;4.70;;
16892;SDS011;8563;52.242;9.098;2024-01-06T03:19:34;4.67;;;4.27;;
16892;SDS011;8563;52.242;9.098;2024-01-06T03:22:07;4.80;;;4.40;;
16892;SDS011;8563;52.242;9.098;2024-01-06T03:24:41;5.40;;;4.87;;
16892;SDS011;8563;52.242;9.098;2024-01-06T03:27:13;5.53;;;4.60;;
16892;SDS011;8563;52.242;9.098;2024-01-06T03:29:46;5.30;;;4.60;;
16892;SDS011;8563;52.242;9.098;2024-01-06T03:32:18;5.53;;;5.03;;
16892;SDS011;8563;52.242;9.098;2024-01-06T03:34:51;6.27;;;5.70;;
16892;SDS011;8563;52.242;9.098;2024-01-06T03:37:24;6.17;;;5.67;;
16892;SDS011;8563;52.242;9.098;2024-01-06T03:39:58;5.27;;;4.80;;
16892;SDS011;8563;52.242;9.098;2024-01-06T03:42:30;6.47;;;5.87;;
16892;SDS011;8563;52.242;9.098;2024-01-06T03:45:03;5.57;;;5.07;;
16892;SDS011;8563;52.242;9.098;2024-01-06T03:47:35;6.70;;;6.00;;
16892;SDS011;8563;52.242;9.098;2024-01-06T03:50:08;7.10;;;6.27;;
16892;SDS011;8563;52.242;9.098;2024-01-06T03:52:40;7.53;;;6.73;;
16892;SDS011;8563;52.242;9.098;2024-01-06T03:55:14;7.67;;;6.97;;
16892;SDS011;8563;52.242;9.098;2024-01-06T03:57:47;6.37;;;5.80;;
16892;SDS011;8563;52.242;9.098;2024-01-06T04:00:19;7.90;;;7.20;;
16892;SDS011;8563;52.242;9.098;2024-01-06T04:02:52;6.80;;;6.20;;
16892;SDS011;8563;52.242;9.098;2024-01-06T04:05:24;7.90;;;7.13;;
16892;SDS011;8563;52.242;9.098;2024-01-06T04:07:57;8.00;;;7.13;;
16892;SDS011;8563;52.242;9.098;2024-01-06T04:10:31;7.10;;;6.30;;
16892;SDS011;8563;52.242;9.098;2024-01-06T04:13:03;7.43;;;6.70;;
16892;SDS011;8563;52.242;9.098;2024-01-06T04:15:36;7.80;;;7.00;;
16892;SDS011;8563;52.242;9.098;2024-01-06T04:18:08;6.90;;;6.30;;
16892;SDS011;8563;52.242;9.098;2024-01-06T04:20:41;7.57;;;6.87;;
16892;SDS011;8563;52.242;9.098;2024-01-06T04:23:13;8.53;;;7.63;;
16892;SDS011;8563;52.242;9.098;2024-01-06T04:25:47;9.00;;;8.10;;
16892;SDS011;8563;52.242;9.098;2024-01-06T04:28:20;8.97;;;8.07;;
16892;SDS011;8563;52.242;9.098;2024-01-06T04:30:52;8.27;;;7.53;;
16892;SDS011;8563;52.242;9.098;2024-01-06T04:33:24;8.00;;;7.30;;
16892;SDS011;8563;52.242;9.098;2024-01-06T04:35:57;8.17;;;7.37;;
16892;SDS011;8563;52.242;9.098;2024-01-06T04:38:32;8.57;;;7.77;;
16892;SDS011;8563;52.242;9.098;2024-01-06T04:41:06;8.37;;;7.50;;
16892;SDS011;8563;52.242;9.098;2024-01-06T04:43:38;8.73;;;7.93;;
16892;SDS011;8563;52.242;9.098;2024-01-06T04:46:10;8.63;;;7.83;;
16892;SDS011;8563;52.242;9.098;2024-01-06T04:48:43;8.57;;;7.67;;
16892;SDS011;8563;52.242;9.098;2024-01-06T04:51:15;9.33;;;8.03;;
16892;SDS011;8563;52.242;9.098;2024-01-06T04:53:48;8.00;;;7.20;;
16892;SDS011;8563;52.242;9.098;2024-01-06T04:56:21;8.47;;;7.67;;
16892;SDS011;8563;52.242;9.098;2024-01-06T04:58:54;9.50;;;8.60;;
16892;SDS011;8563;52.242;9.098;2024-01-06T05:01:27;8.63;;;7.73;;
16892;SDS011;8563;52.242;9.098;2024-01-06T05:04:00;8.73;;;7.83;;
16892;SDS011;8563;52.242;9.098;2024-01-06T05:06:32;8.17;;;7.47;;
16892;SDS011;8563;52.242;9.098;2024-01-06T05:09:05;9.57;;;8.63;;
16892;SDS011;8563;52.242;9.098;2024-01-06T05:11:39;9.10;;;8.20;;
16892;SDS011;8563;52.242;9.098;2024-01-06T05:14:11;9.37;;;8.47;;
16892;SDS011;8563;52.242;9.098;2024-01-06T05:16:44;9.37;;;8.30;;
16892;SDS011;8563;52.242;9.098;2024-01-06T05:19:16;9.03;;;8.13;;
16892;SDS011;8563;52.242;9.098;2024-01-06T05:21:51;9.57;;;8.67;;
16892;SDS011;8563;52.242;9.098;2024-01-06T05:24:23;8.50;;;7.70;;
16892;SDS011;8563;52.242;9.098;2024-01-06T05:26:57;9.60;;;8.70;;
16892;SDS011;8563;52.242;9.098;2024-01-06T05:29:30;9.13;;;8.23;;
16892;SDS011;8563;52.242;9.098;2024-01-06T05:32:03;9.43;;;8.53;;
16892;SDS011;8563;52.242;9.098;2024-01-06T05:34:35;8.70;;;7.90;;
16892;SDS011;8563;52.242;9.098;2024-01-06T05:37:07;9.23;;;8.20;;
16892;SDS011;8563;52.242;9.098;2024-01-06T05:39:40;9.63;;;8.63;;
16892;SDS011;8563;52.242;9.098;2024-01-06T05:42:14;9.57;;;8.57;;
16892;SDS011;8563;52.242;9.098;2024-01-06T05:44:46;9.73;;;8.73;;
16892;SDS011;8563;52.242;9.098;2024-01-06T05:47:18;9.47;;;8.57;;
16892;SDS011;8563;52.242;9.098;2024-01-06T05:49:51;9.93;;;8.93;;
16892;SDS011;8563;52.242;9.098;2024-01-06T05:52:23;9.60;;;8.57;;
16892;SDS011;8563;52.242;9.098;2024-01-06T05:54:56;11.33;;;9.63;;
16892;SDS011;8563;52.242;9.098;2024-01-06T05:57:30;10.30;;;9.30;;
16892;SDS011;8563;52.242;9.098;2024-01-06T06:00:02;9.73;;;8.73;;
16892;SDS011;8563;52.242;9.098;2024-01-06T06:02:42;10.97;;;9.87;;
16892;SDS011;8563;52.242;9.098;2024-01-06T06:05:15;9.23;;;8.33;;
16892;SDS011;8563;52.242;9.098;2024-01-06T06:07:47;9.57;;;8.63;;
16892;SDS011;8563;52.242;9.098;2024-01-06T06:10:20;9.50;;;8.50;;
16892;SDS011;8563;52.242;9.098;2024-01-06T06:12:54;9.60;;;8.70;;
16892;SDS011;8563;52.242;9.098;2024-01-06T06:15:26;9.87;;;8.67;;
16892;SDS011;8563;52.242;9.098;2024-01-06T06:17:59;11.87;;;9.83;;
16892;SDS011;8563;52.242;9.098;2024-01-06T06:20:31;9.93;;;8.93;;
16892;SDS011;8563;52.242;9.098;2024-01-06T06:23:04;9.57;;;8.67;;
16892;SDS011;8563;52.242;9.098;2024-01-06T06:25:37;10.60;;;8.97;;
16892;SDS011;8563;52.242;9.098;2024-01-06T06:28:11;10.37;;;9.37;;
16892;SDS011;8563;52.242;9.098;2024-01-06T06:30:44;9.87;;;8.87;;
16892;SDS011;8563;52.242;9.098;2024-01-06T06:33:16;10.10;;;9.10;;
16892;SDS011;8563;52.242;9.098;2024-01-06T06:35:49;9.63;;;8.67;;
16892;SDS011;8563;52.242;9.098;2024-01-06T06:38:21;11.00;;;9.60;;
16892;SDS011;8563;52.242;9.098;2024-01-06T06:40:54;12.45;;;11.38;;
16892;SDS011;8563;52.242;9.098;2024-01-06T06:43:28;11.67;;;10.47;;
16892;SDS011;8563;52.242;9.098;2024-01-06T06:46:00;11.00;;;9.83;;
16892;SDS011;8563;52.242;9.098;2024-01-06T06:48:33;10.53;;;9.43;;
16892;SDS011;8563;52.242;9.098;2024-01-06T06:51:06;10.50;;;9.43;;
16892;SDS011;8563;52.242;9.098;2024-01-06T06:53:38;11.33;;;9.67;;
16892;SDS011;8563;52.242;9.098;2024-01-06T06:56:11;10.50;;;9.40;;
16892;SDS011;8563;52.242;9.098;2024-01-06T06:58:48;10.00;;;9.00;;
16892;SDS011;8563;52.242;9.098;2024-01-06T07:01:21;10.77;;;9.67;;
16892;SDS011;8563;52.242;9.098;2024-01-06T07:03:53;10.83;;;9.73;;
16892;SDS011;8563;52.242;9.098;2024-01-06T07:06:29;10.77;;;9.67;;
16892;SDS011;8563;52.242;9.098;2024-01-06T07:09:02;10.57;;;9.57;;
16892;SDS011;8563;52.242;9.098;2024-01-06T07:11:35;10.93;;;9.83;;
16892;SDS011;8563;52.242;9.098;2024-01-06T07:14:09;11.23;;;10.13;;
16892;SDS011;8563;52.242;9.098;2024-01-06T07:16:41;10.77;;;9.67;;
16892;SDS011;8563;52.242;9.098;2024-01-06T07:19:14;12.07;;;10.77;;
16892;SDS011;8563;52.242;9.098;2024-01-06T07:21:46;11.70;;;10.50;;
16892;SDS011;8563;52.242;9.098;2024-01-06T07:24:19;12.40;;;10.73;;
16892;SDS011;8563;52.242;9.098;2024-01-06T07:26:52;11.70;;;10.50;;
16892;SDS011;8563;52.242;9.098;2024-01-06T07:29:26;11.83;;;10.63;;
16892;SDS011;8563;52.242;9.098;2024-01-06T07:31:58;13.57;;;10.70;;
16892;SDS011;8563;52.242;9.098;2024-01-06T07:34:31;11.33;;;10.13;;
16892;SDS011;8563;52.242;9.098;2024-01-06T07:37:03;10.90;;;9.83;;
16892;SDS011;8563;52.242;9.098;2024-01-06T07:39:36;11.50;;;10.30;;
16892;SDS011;8563;52.242;9.098;2024-01-06T07:42:08;11.47;;;10.17;;
16892;SDS011;8563;52.242;9.098;2024-01-06T07:44:43;10.77;;;9.30;;
16892;SDS011;8563;52.242;9.098;2024-01-06T07:47:15;9.30;;;8.13;;
16892;SDS011;8563;52.242;9.098;2024-01-06T07:49:48;6.70;;;5.57;;
16892;SDS011;8563;52.242;9.098;2024-01-06T07:52:20;5.97;;;4.80;;
16892;SDS011;8563;52.242;9.098;2024-01-06T07:54:53;5.93;;;5.37;;
16892;SDS011;8563;52.242;9.098;2024-01-06T07:57:25;6.00;;;5.40;;
16892;SDS011;8563;52.242;9.098;2024-01-06T07:59:59;5.60;;;4.23;;
16892;SDS011;8563;52.242;9.098;2024-01-06T08:02:42;4.40;;;3.77;;
16892;SDS011;8563;52.242;9.098;2024-01-06T08:05:15;5.23;;;3.67;;
16892;SDS011;8563;52.242;9.098;2024-01-06T08:07:47;7.23;;;4.30;;
16892;SDS011;8563;52.242;9.098;2024-01-06T08:10:20;4.37;;;3.93;;
16892;SDS011;8563;52.242;9.098;2024-01-06T08:12:52;4.20;;;3.80;;
16892;SDS011;8563;52.242;9.098;2024-01-06T08:15:26;3.57;;;3.27;;
16892;SDS011;8563;52.242;9.098;2024-01-06T08:17:58;3.50;;;3.20;;
16892;SDS011;8563;52.242;9.098;2024-01-06T08:20:31;3.43;;;3.13;;
16892;SDS011;8563;52.242;9.098;2024-01-06T08:23:03;3.50;;;3.20;;
16892;SDS011;8563;52.242;9.098;2024-01-06T08:25:36;3.10;;;2.57;;
16892;SDS011;8563;52.242;9.098;2024-01-06T08:28:08;3.13;;;2.83;;
16892;SDS011;8563;52.242;9.098;2024-01-06T08:30:43;2.77;;;2.53;;
16892;SDS011;8563;52.242;9.098;2024-01-06T08:33:15;4.90;;;3.00;;
16892;SDS011;8563;52.242;9.098;2024-01-06T08:35:48;3.47;;;2.83;;
16892;SDS011;8563;52.242;9.098;2024-01-06T08:38:21;3.03;;;2.73;;
16892;SDS011;8563;52.242;9.098;2024-01-06T08:40:53;3.47;;;3.17;;
16892;SDS011;8563;52.242;9.098;2024-01-06T08:43:26;3.17;;;2.70;;
16892;SDS011;8563;52.242;9.098;2024-01-06T08:45:59;3.30;;;3.00;;
16892;SDS011;8563;52.242;9.098;2024-01-06T08:48:32;3.10;;;2.53;;
16892;SDS011;8563;52.242;9.098;2024-01-06T08:51:05;3.23;;;2.60;;
16892;SDS011;8563;52.242;9.098;2024-01-06T08:53:37;2.87;;;2.60;;
16892;SDS011;8563;52.242;9.098;2024-01-06T08:56:09;3.37;;;2.77;;
16892;SDS011;8563;52.242;9.098;2024-01-06T08:58:42;2.83;;;2.20;;
16892;SDS011;8563;52.242;9.098;2024-01-06T09:01:16;3.20;;;2.90;;
16892;SDS011;8563;52.242;9.098;2024-01-06T09:03:48;2.33;;;2.13;;
16892;SDS011;8563;52.242;9.098;2024-01-06T09:06:21;2.57;;;2.30;;
16892;SDS011;8563;52.242;9.098;2024-01-06T09:08:54;3.13;;;2.80;;
16892;SDS011;8563;52.242;9.098;2024-01-06T09:11:26;2.70;;;2.50;;
16892;SDS011;8563;52.242;9.098;2024-01-06T09:13:59;4.87;;;3.20;;
16892;SDS011;8563;52.242;9.098;2024-01-06T09:16:33;6.10;;;3.40;;
16892;SDS011;8563;52.242;9.098;2024-01-06T09:19:05;6.30;;;4.60;;
16892;SDS011;8563;52.242;9.098;2024-01-06T09:21:38;4.83;;;4.33;;
16892;SDS011;8563;52.242;9.098;2024-01-06T09:24:10;4.33;;;3.60;;
16892;SDS011;8563;52.242;9.098;2024-01-06T09:26:43;5.97;;;4.00;;
16892;SDS011;8563;52.242;9.098;2024-01-06T09:29:16;6.20;;;4.27;;
16892;SDS011;8563;52.242;9.098;2024-01-06T09:31:50;4.60;;;4.07;;
16892;SDS011;8563;52.242;9.098;2024-01-06T09:34:22;3.97;;;3.20;;
16892;SDS011;8563;52.242;9.098;2024-01-06T09:36:55;4.43;;;4.03;;
16892;SDS011;8563;52.242;9.098;2024-01-06T09:39:27;5.33;;;4.33;;
16892;SDS011;8563;52.242;9.098;2024-01-06T09:42:01;4.77;;;4.30;;
16892;SDS011;8563;52.242;9.098;2024-01-06T09:44:33;11.57;;;9.23;;
16892;SDS011;8563;52.242;9.098;2024-01-06T09:47:07;11.63;;;9.60;;
16892;SDS011;8563;52.242;9.098;2024-01-06T09:49:41;14.00;;;11.00;;
16892;SDS011;8563;52.242;9.098;2024-01-06T09:52:20;12.43;;;10.53;;
16892;SDS011;8563;52.242;9.098;2024-01-06T09:54:53;16.27;;;11.73;;
16892;SDS011;8563;52.242;9.098;2024-01-06T09:57:26;13.43;;;10.63;;
16892;SDS011;8563;52.242;9.098;2024-01-06T09:59:59;12.70;;;10.87;;
16892;SDS011;8563;52.242;9.098;2024-01-06T10:02:32;12.73;;;10.93;;
16892;SDS011;8563;52.242;9.098;2024-01-06T10:05:05;15.83;;;12.63;;
16892;SDS011;8563;52.242;9.098;2024-01-06T10:07:38;16.27;;;12.87;;
16892;SDS011;8563;52.242;9.098;2024-01-06T10:10:10;16.87;;;13.03;;
16892;SDS011;8563;52.242;9.098;2024-01-06T10:12:43;16.30;;;12.50;;
16892;SDS011;8563;52.242;9.098;2024-01-06T10:15:16;16.57;;;12.13;;
16892;SDS011;8563;52.242;9.098;2024-01-06T10:17:50;15.53;;;12.10;;
16892;SDS011;8563;52.242;9.098;2024-01-06T10:20:22;15.13;;;12.37;;
16892;SDS011;8563;52.242;9.098;2024-01-06T10:22:55;17.47;;;13.03;;
16892;SDS011;8563;52.242;9.098;2024-01-06T10:25:36;19.87;;;13.23;;
16892;SDS011;8563;52.242;9.098;2024-01-06T10:28:11;18.30;;;12.60;;
16892;SDS011;8563;52.242;9.098;2024-01-06T10:30:43;13.67;;;11.10;;
16892;SDS011;8563;52.242;9.098;2024-01-06T10:33:17;13.20;;;10.90;;
16892;SDS011;8563;52.242;9.098;2024-01-06T10:35:50;15.97;;;12.53;;
16892;SDS011;8563;52.242;9.098;2024-01-06T10:38:22;18.43;;;13.30;;
16892;SDS011;8563;52.242;9.098;2024-01-06T10:40:55;23.33;;;19.20;;
16892;SDS011;8563;52.242;9.098;2024-01-06T10:43:28;18.07;;;13.20;;
16892;SDS011;8563;52.242;9.098;2024-01-06T10:46:05;13.80;;;10.63;;
16892;SDS011;8563;52.242;9.098;2024-01-06T10:48:42;13.23;;;10.77;;
16892;SDS011;8563;52.242;9.098;2024-01-06T10:51:15;15.17;;;11.33;;
16892;SDS011;8563;52.242;9.098;2024-01-06T10:53:48;17.13;;;12.07;;
16892;SDS011;8563;52.242;9.098;2024-01-06T10:56:22;16.90;;;12.27;;
16892;SDS011;8563;52.242;9.098;2024-01-06T10:58:55;15.20;;;11.97;;
16892;SDS011;8563;52.242;9.098;2024-01-06T11:01:28;16.37;;;11.10;;
16892;SDS011;8563;52.242;9.098;2024-01-06T11:04:03;14.73;;;10.77;;
16892;SDS011;8563;52.242;9.098;2024-01-06T11:06:36;15.73;;;11.23;;
16892;SDS011;8563;52.242;9.098;2024-01-06T11:09:11;17.13;;;11.27;;
16892;SDS011;8563;52.242;9.098;2024-01-06T11:11:45;13.70;;;10.80;;
16892;SDS011;8563;52.242;9.098;2024-01-06T11:14:19;17.70;;;11.77;;
16892;SDS011;8563;52.242;9.098;2024-01-06T11:16:52;12.20;;;9.90;;
16892;SDS011;8563;52.242;9.098;2024-01-06T11:19:45;12.87;;;10.43;;
16892;SDS011;8563;52.242;9.098;2024-01-06T11:22:21;16.13;;;11.63;;
16892;SDS011;8563;52.242;9.098;2024-01-06T11:24:56;13.63;;;9.83;;
16892;SDS011;8563;52.242;9.098;2024-01-06T11:27:28;13.53;;;10.77;;
16892;SDS011;8563;52.242;9.098;2024-01-06T11:30:01;14.13;;;10.37;;
16892;SDS011;8563;52.242;9.098;2024-01-06T11:32:36;13.97;;;10.10;;
16892;SDS011;8563;52.242;9.098;2024-01-06T11:35:11;12.27;;;9.90;;
16892;SDS011;8563;52.242;9.098;2024-01-06T11:37:51;12.33;;;9.50;;
16892;SDS011;8563;52.242;9.098;2024-01-06T11:40:26;12.77;;;9.93;;
16892;SDS011;8563;52.242;9.098;2024-01-06T11:43:04;14.10;;;10.10;;
16892;SDS011;8563;52.242;9.098;2024-01-06T11:45:38;14.47;;;10.03;;
16892;SDS011;8563;52.242;9.098;2024-01-06T11:48:11;13.80;;;9.87;;
16892;SDS011;8563;52.242;9.098;2024-01-06T11:50:45;12.90;;;8.90;;
16892;SDS011;8563;52.242;9.098;2024-01-06T11:53:18;12.77;;;9.57;;
16892;SDS011;8563;52.242;9.098;2024-01-06T11:55:50;11.47;;;9.07;;
16892;SDS011;8563;52.242;9.098;2024-01-06T11:58:24;11.83;;;8.57;;
16892;SDS011;8563;52.242;9.098;2024-01-06T12:00:57;12.33;;;9.23;;
16892;SDS011;8563;52.242;9.098;2024-01-06T12:03:29;11.93;;;9.73;;
16892;SDS011;8563;52.242;9.098;2024-01-06T12:06:04;13.53;;;9.93;;
16892;SDS011;8563;52.242;9.098;2024-01-06T12:08:36;10.30;;;7.80;;
16892;SDS011;8563;52.242;9.098;2024-01-06T12:11:09;13.03;;;9.80;;
16892;SDS011;8563;52.242;9.098;2024-01-06T12:13:42;11.63;;;8.80;;
16892;SDS011;8563;52.242;9.098;2024-01-06T12:16:17;10.73;;;8.37;;
16892;SDS011;8563;52.242;9.098;2024-01-06T12:18:50;9.97;;;7.70;;
16892;SDS011;8563;52.242;9.098;2024-01-06T12:21:24;9.57;;;7.80;;
16892;SDS011;8563;52.242;9.098;2024-01-06T12:24:11;10.70;;;7.47;;
16892;SDS011;8563;52.242;9.098;2024-01-06T12:26:44;9.77;;;7.20;;
16892;SDS011;8563;52.242;9.098;2024-01-06T12:29:16;8.63;;;7.00;;
16892;SDS011;8563;52.242;9.098;2024-01-06T12:31:49;9.17;;;7.33;;
16892;SDS011;8563;52.242;9.098;2024-01-06T12:34:23;9.50;;;7.53;;
16892;SDS011;8563;52.242;9.098;2024-01-06T12:36:56;8.17;;;6.33;;
16892;SDS011;8563;52.242;9.098;2024-01-06T12:39:31;8.13;;;6.87;;
16892;SDS011;8563;52.242;9.098;2024-01-06T12:42:04;8.67;;;6.83;;
16892;SDS011;8563;52.242;9.098;2024-01-06T12:44:36;7.43;;;6.60;;
16892;SDS011;8563;52.242;9.098;2024-01-06T12:47:10;7.47;;;6.23;;
16892;SDS011;8563;52.242;9.098;2024-01-06T12:49:43;10.30;;;7.57;;
16892;SDS011;8563;52.242;9.098;2024-01-06T12:52:17;7.13;;;6.20;;
16892;SDS011;8563;52.242;9.098;2024-01-06T12:54:50;7.87;;;6.30;;
16892;SDS011;8563;52.242;9.098;2024-01-06T12:57:22;7.60;;;6.27;;
16892;SDS011;8563;52.242;9.098;2024-01-06T12:59:55;8.73;;;6.77;;
16892;SDS011;8563;52.242;9.098;2024-01-06T13:02:27;8.13;;;7.10;;
16892;SDS011;8563;52.242;9.098;2024-01-06T13:05:00;7.40;;;5.80;;
16892;SDS011;8563;52.242;9.098;2024-01-06T13:07:34;9.13;;;7.07;;
16892;SDS011;8563;52.242;9.098;2024-01-06T13:10:07;7.97;;;6.57;;
16892;SDS011;8563;52.242;9.098;2024-01-06T13:12:39;8.20;;;6.40;;
16892;SDS011;8563;52.242;9.098;2024-01-06T13:15:12;8.63;;;6.90;;
16892;SDS011;8563;52.242;9.098;2024-01-06T13:17:44;8.10;;;6.33;;
16892;SDS011;8563;52.242;9.098;2024-01-06T13:20:17;7.23;;;6.27;;
16892;SDS011;8563;52.242;9.098;2024-01-06T13:22:50;7.93;;;6.80;;
16892;SDS011;8563;52.242;9.098;2024-01-06T13:25:23;7.93;;;6.30;;
16892;SDS011;8563;52.242;9.098;2024-01-06T13:27:55;7.47;;;6.40;;
16892;SDS011;8563;52.242;9.098;2024-01-06T13:30:28;7.83;;;6.60;;
16892;SDS011;8563;52.242;9.098;2024-01-06T13:33:00;8.43;;;6.77;;
16892;SDS011;8563;52.242;9.098;2024-01-06T13:35:33;10.07;;;7.70;;
16892;SDS011;8563;52.242;9.098;2024-01-06T13:38:08;9.47;;;7.07;;
16892;SDS011;8563;52.242;9.098;2024-01-06T13:40:40;8.50;;;7.23;;
16892;SDS011;8563;52.242;9.098;2024-01-06T13:43:13;22.27;;;17.70;;
16892;SDS011;8563;52.242;9.098;2024-01-06T13:45:46;11.83;;;9.07;;
16892;SDS011;8563;52.242;9.098;2024-01-06T13:48:18;10.83;;;9.00;;
16892;SDS011;8563;52.242;9.098;2024-01-06T13:50:51;9.77;;;7.63;;
16892;SDS011;8563;52.242;9.098;2024-01-06T13:53:26;8.87;;;7.43;;
16892;SDS011;8563;52.242;9.098;2024-01-06T13:55:58;8.30;;;7.40;;
16892;SDS011;8563;52.242;9.098;2024-01-06T13:58:31;8.83;;;7.80;;
16892;SDS011;8563;52.242;9.098;2024-01-06T14:01:05;9.53;;;7.73;;
16892;SDS011;8563;52.242;9.098;2024-01-06T14:03:41;9.40;;;7.30;;
16892;SDS011;8563;52.242;9.098;2024-01-06T14:06:13;8.33;;;7.17;;
16892;SDS011;8563;52.242;9.098;2024-01-06T14:08:49;9.03;;;7.27;;
16892;SDS011;8563;52.242;9.098;2024-01-06T14:11:23;9.83;;;7.73;;
16892;SDS011;8563;52.242;9.098;2024-01-06T14:13:56;9.13;;;7.87;;
16892;SDS011;8563;52.242;9.098;2024-01-06T14:16:29;9.87;;;7.40;;
16892;SDS011;8563;52.242;9.098;2024-01-06T14:19:02;9.57;;;8.07;;
16892;SDS011;8563;52.242;9.098;2024-01-06T14:21:34;8.43;;;7.33;;
16892;SDS011;8563;52.242;9.098;2024-01-06T14:24:08;8.70;;;7.27;;
16892;SDS011;8563;52.242;9.098;2024-01-06T14:26:40;9.37;;;7.67;;
16892;SDS011;8563;52.242;9.098;2024-01-06T14:29:13;8.80;;;7.17;;
16892;SDS011;8563;52.242;9.098;2024-01-06T14:31:46;8.53;;;6.70;;
16892;SDS011;8563;52.242;9.098;2024-01-06T14:34:19;8.60;;;6.80;;
16892;SDS011;8563;52.242;9.098;2024-01-06T14:36:51;10.30;;;8.10;;
16892;SDS011;8563;52.242;9.098;2024-01-06T14:39:25;10.87;;;7.77;;
16892;SDS011;8563;52.242;9.098;2024-01-06T14:41:58;9.07;;;7.30;;
16892;SDS011;8563;52.242;9.098;2024-01-06T14:44:30;10.13;;;8.47;;
16892;SDS011;8563;52.242;9.098;2024-01-06T14:47:03;11.20;;;8.70;;
16892;SDS011;8563;52.242;9.098;2024-01-06T14:49:35;9.47;;;8.17;;
16892;SDS011;8563;52.242;9.098;2024-01-06T14:52:08;12.33;;;9.43;;
16892;SDS011;8563;52.242;9.098;2024-01-06T14:54:41;10.53;;;8.40;;
16892;SDS011;8563;52.242;9.098;2024-01-06T14:57:14;11.80;;;8.57;;
16892;SDS011;8563;52.242;9.098;2024-01-06T14:59:47;12.20;;;9.07;;
16892;SDS011;8563;52.242;9.098;2024-01-06T15:02:19;11.50;;;9.63;;
16892;SDS011;8563;52.242;9.098;2024-01-06T15:04:51;12.53;;;9.83;;
16892;SDS011;8563;52.242;9.098;2024-01-06T15:07:24;11.13;;;9.13;;
16892;SDS011;8563;52.242;9.098;2024-01-06T15:09:58;11.67;;;9.30;;
16892;SDS011;8563;52.242;9.098;2024-01-06T15:12:31;11.90;;;8.80;;
16892;SDS011;8563;52.242;9.098;2024-01-06T15:15:04;12.07;;;9.33;;
16892;SDS011;8563;52.242;9.098;2024-01-06T15:17:38;14.93;;;10.43;;
16892;SDS011;8563;52.242;9.098;2024-01-06T15:20:11;14.80;;;11.10;;
16892;SDS011;8563;52.242;9.098;2024-01-06T15:22:44;14.87;;;9.80;;
16892;SDS011;8563;52.242;9.098;2024-01-06T15:25:18;11.43;;;8.80;;
16892;SDS011;8563;52.242;9.098;2024-01-06T15:27:50;18.50;;;11.90;;
16892;SDS011;8563;52.242;9.098;2024-01-06T15:30:22;12.43;;;9.60;;